Time;durP1;ratioP1;P1;durP2;ratioP2;P2;SDS_P1;SDS_P2;PMS_P1;PMS_P2;Temp;Humidity;BMP_temperature;BMP_pressure;BME280_temperature;BME280_humidity;BME280_pressure;Samples;Min_cycle;Max_cycle;Signal;HPM_P1;HPM_P2
2024/01/10 00:01:43;;;;;;;9.03;5.03;;;;;;;-6.56;66.60;102889.75;5281746;28;20096;-71
2024/01/10 00:04:16;;;;;;;10.67;4.87;;;;;;;-6.53;67.55;102896.75;5264670;28;20028;-72
2024/01/10 00:06:47;;;;;;;9.18;4.50;;;;;;;-6.50;69.25;102892.84;5280668;28;20036;-72
2024/01/10 00:09:19;;;;;;;9.87;5.00;;;;;;;-6.55;68.97;102891.56;5280686;28;20086;-71
2024/01/10 00:11:51;;;;;;;9.07;4.57;;;;;;;-6.58;68.40;102887.81;5281903;28;20020;-71
2024/01/10 00:14:22;;;;;;;8.57;4.93;;;;;;;-6.55;69.58;102885.56;5282172;28;20189;-71
2024/01/10 00:16:53;;;;;;;7.07;4.80;;;;;;;-6.58;68.72;102878.59;5281986;28;20033;-71
2024/01/10 00:19:25;;;;;;;8.60;4.73;;;;;;;-6.55;70.12;102880.47;5281720;28;20081;-70
2024/01/10 00:21:56;;;;;;;9.70;4.80;;;;;;;-6.59;70.55;102876.78;5280669;28;20048;-70
2024/01/10 00:24:27;;;;;;;9.97;4.67;;;;;;;-6.66;69.74;102872.81;5281987;28;20027;-70
2024/01/10 00:26:59;;;;;;;8.23;4.77;;;;;;;-6.67;69.42;102863.41;5281899;28;20332;-71
2024/01/10 00:29:30;;;;;;;9.27;4.43;;;;;;;-6.74;69.48;102866.16;5282171;28;20448;-71
2024/01/10 00:32:01;;;;;;;11.60;5.43;;;;;;;-6.75;69.91;102871.09;5282021;28;20324;-71
2024/01/10 00:34:33;;;;;;;8.90;4.93;;;;;;;-6.75;70.38;102869.44;5281622;28;20142;-71
2024/01/10 00:37:04;;;;;;;8.90;5.10;;;;;;;-6.69;70.72;102871.66;5282182;28;20464;-71
2024/01/10 00:39:36;;;;;;;9.07;4.60;;;;;;;-6.72;70.30;102866.28;5282327;28;20028;-71
2024/01/10 00:42:07;;;;;;;7.97;5.00;;;;;;;-6.73;70.43;102867.03;5281432;28;20381;-70
2024/01/10 00:44:39;;;;;;;9.13;4.53;;;;;;;-6.72;71.18;102869.72;5281976;28;20029;-71
2024/01/10 00:47:11;;;;;;;8.93;5.20;;;;;;;-6.71;71.15;102873.13;5280178;28;20032;-71
2024/01/10 00:49:42;;;;;;;9.68;5.68;;;;;;;-6.75;71.72;102864.34;5281459;28;20029;-70
2024/01/10 00:52:14;;;;;;;9.07;5.10;;;;;;;-6.79;71.61;102872.47;5242270;28;1126934;-70
2024/01/10 00:54:46;;;;;;;9.53;5.57;;;;;;;-6.82;71.40;102872.19;5282249;28;20503;-70
2024/01/10 00:57:17;;;;;;;9.48;5.22;;;;;;;-6.83;71.26;102862.78;5282218;28;20033;-70
2024/01/10 00:59:48;;;;;;;8.33;5.50;;;;;;;-6.83;71.70;102865.31;5282039;28;20033;-71
2024/01/10 01:02:20;;;;;;;8.37;5.13;;;;;;;-6.91;71.25;102863.72;5282318;28;20035;-71
2024/01/10 01:04:51;;;;;;;6.87;4.37;;;;;;;-6.86;71.92;102860.88;5282455;28;20032;-71
2024/01/10 01:07:22;;;;;;;9.33;5.13;;;;;;;-6.89;72.58;102859.66;5282257;28;20464;-71
2024/01/10 01:09:54;;;;;;;5.70;3.97;;;;;;;-6.88;72.86;102861.47;5280731;28;20487;-71
2024/01/10 01:12:25;;;;;;;8.50;5.07;;;;;;;-6.94;72.08;102859.25;5282445;28;20432;-71
2024/01/10 01:14:57;;;;;;;10.07;5.63;;;;;;;-6.94;72.53;102859.25;5281939;28;20095;-72
2024/01/10 01:17:29;;;;;;;8.93;5.17;;;;;;;-6.97;72.11;102864.03;5282249;28;20055;-70
2024/01/10 01:20:00;;;;;;;8.23;4.53;;;;;;;-6.91;73.71;102851.03;5280813;28;20025;-71
2024/01/10 01:22:32;;;;;;;9.00;4.57;;;;;;;-6.96;73.23;102856.56;5280849;28;20524;-71
2024/01/10 01:25:03;;;;;;;9.47;4.90;;;;;;;-6.97;72.59;102862.41;5282199;28;20033;-70
2024/01/10 01:27:35;;;;;;;9.33;5.27;;;;;;;-6.97;72.82;102861.50;5282369;28;20028;-70
2024/01/10 01:30:07;;;;;;;9.77;5.07;;;;;;;-6.94;74.07;102850.75;5282012;28;20028;-70
2024/01/10 01:32:38;;;;;;;8.07;4.75;;;;;;;-6.96;74.13;102854.03;5282976;28;20505;-71
2024/01/10 01:35:10;;;;;;;7.90;5.03;;;;;;;-7.02;73.09;102853.50;5286234;28;20032;-70
2024/01/10 01:37:41;;;;;;;10.03;6.37;;;;;;;-7.03;73.41;102846.63;5284352;28;20040;-70
2024/01/10 01:40:12;;;;;;;7.67;4.90;;;;;;;-6.97;74.12;102857.34;5285757;28;20391;-71
2024/01/10 01:42:45;;;;;;;8.23;5.47;;;;;;;-7.05;73.26;102852.31;5286055;28;20089;-69
2024/01/10 01:45:17;;;;;;;8.60;5.00;;;;;;;-6.96;73.51;102851.50;5284239;28;20381;-70
2024/01/10 01:47:49;;;;;;;10.80;5.77;;;;;;;-7.01;73.89;102841.72;5285669;28;20025;-70
2024/01/10 01:50:20;;;;;;;9.35;5.00;;;;;;;-7.04;74.56;102843.97;5283968;28;20075;-70
2024/01/10 01:52:52;;;;;;;10.43;5.20;;;;;;;-7.05;74.01;102848.16;5284805;28;20037;-71
2024/01/10 01:55:24;;;;;;;11.70;5.03;;;;;;;-7.06;74.52;102846.34;5286615;28;20098;-71
2024/01/10 01:57:55;;;;;;;10.83;5.57;;;;;;;-7.14;74.15;102852.38;5285746;28;20364;-70
2024/01/10 02:00:27;;;;;;;11.63;6.10;;;;;;;-7.11;74.62;102844.16;5285608;28;20194;-70
2024/01/10 02:02:58;;;;;;;12.17;5.83;;;;;;;-7.10;74.82;102840.84;5285345;28;20047;-70
2024/01/10 02:05:30;;;;;;;10.80;5.63;;;;;;;-7.11;75.29;102844.16;5284077;28;20086;-70
2024/01/10 02:08:02;;;;;;;11.90;5.63;;;;;;;-7.19;74.89;102841.78;5285480;28;20029;-70
2024/01/10 02:10:34;;;;;;;10.80;5.43;;;;;;;-7.16;75.64;102846.28;5285092;28;20033;-71
2024/01/10 02:13:06;;;;;;;9.48;4.95;;;;;;;-7.27;75.33;102836.78;5285403;28;20133;-71
2024/01/10 02:15:38;;;;;;;8.68;4.93;;;;;;;-7.19;75.83;102839.25;5285019;28;20057;-71
2024/01/10 02:18:12;;;;;;;7.53;5.40;;;;;;;-7.22;76.27;102840.63;5285505;28;20448;-71
2024/01/10 02:20:44;;;;;;;9.57;5.45;;;;;;;-7.30;76.05;102837.38;5284657;28;20355;-71
2024/01/10 02:23:16;;;;;;;;;;;;;;;-7.23;75.42;102838.84;5285155;28;20024;-71
2024/01/10 02:25:47;;;;;;;10.18;5.30;;;;;;;-7.16;77.47;102838.66;5285218;28;19919;-71
2024/01/10 02:28:19;;;;;;;10.07;4.83;;;;;;;-7.26;77.17;102830.94;5284881;28;20071;-70
2024/01/10 02:30:52;;;;;;;9.40;5.53;;;;;;;-7.31;76.52;102832.16;5284313;28;20551;-71
2024/01/10 02:33:24;;;;;;;8.30;4.47;;;;;;;-7.26;76.66;102834.41;5283552;28;20032;-71
2024/01/10 02:35:55;;;;;;;7.00;4.13;;;;;;;-7.21;76.76;102834.78;5284410;28;20369;-71
2024/01/10 02:38:26;;;;;;;8.83;5.50;;;;;;;-7.23;76.52;102829.63;5284370;28;20070;-71
2024/01/10 02:40:58;;;;;;;7.60;4.27;;;;;;;-7.23;77.50;102831.22;5284277;28;20052;-71
2024/01/10 02:43:29;;;;;;;9.30;5.20;;;;;;;-7.31;76.56;102829.63;5283137;28;20056;-71
2024/01/10 02:46:01;;;;;;;9.60;5.97;;;;;;;-7.39;77.04;102822.22;5284062;28;20028;-71
2024/01/10 02:48:32;;;;;;;8.47;5.50;;;;;;;-7.39;76.47;102827.31;5283876;28;20062;-71
2024/01/10 02:51:03;;;;;;;7.87;4.90;;;;;;;-7.23;77.51;102821.09;5284320;28;20052;-69
2024/01/10 02:53:35;;;;;;;9.70;4.57;;;;;;;-7.24;77.04;102805.00;5266249;28;20033;-69
2024/01/10 02:56:06;;;;;;;12.53;4.67;;;;;;;-7.30;76.79;102816.22;5284125;28;20052;-72
2024/01/10 02:58:38;;;;;;;7.70;4.60;;;;;;;-7.25;77.58;102810.81;5284507;28;20043;-70
2024/01/10 03:01:09;;;;;;;6.40;4.23;;;;;;;-7.19;77.65;102810.50;5284018;28;20037;-72
2024/01/10 03:03:41;;;;;;;9.53;4.93;;;;;;;-7.26;77.90;102813.22;5284400;28;20033;-71
2024/01/10 03:06:12;;;;;;;14.50;5.67;;;;;;;-7.27;77.48;102811.44;5266571;28;20321;-71
2024/01/10 03:08:43;;;;;;;8.23;4.63;;;;;;;-7.24;77.61;102807.53;5283953;28;20040;-71
2024/01/10 03:11:15;;;;;;;9.70;4.90;;;;;;;-7.21;77.85;102806.91;5283918;28;20024;-72
2024/01/10 03:13:47;;;;;;;8.87;5.10;;;;;;;-7.28;78.06;102799.50;5282494;28;20039;-72
2024/01/10 03:16:19;;;;;;;8.02;4.78;;;;;;;-7.27;77.75;102801.31;5283515;28;20395;-73
2024/01/10 03:18:50;;;;;;;8.57;4.00;;;;;;;-7.28;76.96;102797.84;5282396;28;20029;-73
2024/01/10 03:21:24;;;;;;;9.30;4.87;;;;;;;-7.28;77.35;102790.25;5283606;28;20435;-73
2024/01/10 03:23:57;;;;;;;9.40;4.35;;;;;;;-7.27;77.98;102794.59;5283339;28;20036;-73
2024/01/10 03:26:30;;;;;;;10.77;5.93;;;;;;;-7.34;77.51;102790.59;5283468;28;20063;-73
2024/01/10 03:29:01;;;;;;;11.55;6.22;;;;;;;-7.42;77.65;102790.63;5283524;28;20199;-73
2024/01/10 03:31:33;;;;;;;9.63;5.00;;;;;;;-7.40;77.59;102789.16;5283324;28;20032;-73
2024/01/10 03:34:04;;;;;;;9.87;5.70;;;;;;;-7.35;78.44;102795.53;5283471;28;20025;-73
2024/01/10 03:36:35;;;;;;;9.80;5.33;;;;;;;-7.39;78.27;102794.38;5283170;28;20382;-73
2024/01/10 03:39:07;;;;;;;11.57;5.20;;;;;;;-7.40;78.82;102792.56;5282375;28;20387;-73
2024/01/10 03:41:38;;;;;;;9.77;5.43;;;;;;;-7.41;79.18;102788.25;5283550;28;20530;-72
2024/01/10 03:44:10;;;;;;;10.20;5.13;;;;;;;-7.42;79.13;102786.47;5283404;28;20475;-73
2024/01/10 03:46:41;;;;;;;8.27;4.77;;;;;;;-7.46;79.44;102780.97;5283318;28;20029;-74
2024/01/10 03:49:12;;;;;;;10.17;5.83;;;;;;;-7.45;80.02;102778.59;5282305;28;20098;-73
2024/01/10 03:51:44;;;;;;;11.17;5.63;;;;;;;-7.46;78.73;102775.91;5283018;28;20057;-73
2024/01/10 03:54:15;;;;;;;10.03;4.90;;;;;;;-7.40;78.74;102767.22;5283178;28;20064;-73
2024/01/10 03:56:46;;;;;;;11.27;5.33;;;;;;;-7.41;79.46;102762.91;5282731;28;20494;-74
2024/01/10 03:59:18;;;;;;;8.20;5.60;;;;;;;-7.39;79.45;102766.50;5283092;28;20087;-73
2024/01/10 04:01:49;;;;;;;9.17;5.13;;;;;;;-7.43;79.34;102764.41;5283034;28;20426;-74
2024/01/10 04:04:20;;;;;;;9.07;4.83;;;;;;;-7.44;79.48;102762.63;5283233;28;20036;-73
2024/01/10 04:06:52;;;;;;;11.30;5.23;;;;;;;-7.53;79.04;102766.88;5283351;28;20059;-74
2024/01/10 04:09:23;;;;;;;11.07;5.57;;;;;;;-7.52;79.04;102769.53;5282902;28;20037;-74
2024/01/10 04:11:55;;;;;;;10.50;5.87;;;;;;;-7.48;79.83;102764.75;5282904;28;20032;-74
2024/01/10 04:14:26;;;;;;;7.93;5.13;;;;;;;-7.53;79.37;102766.88;5283280;28;20107;-74
2024/01/10 04:16:58;;;;;;;8.10;5.03;;;;;;;-7.58;79.44;102757.91;5282917;28;20033;-74
2024/01/10 04:19:29;;;;;;;8.67;5.07;;;;;;;-7.57;78.91;102757.19;5283478;28;20024;-74
2024/01/10 04:22:00;;;;;;;9.10;4.70;;;;;;;-7.53;79.58;102756.72;5283597;28;20036;-72
2024/01/10 04:24:32;;;;;;;7.60;4.80;;;;;;;-7.54;79.65;102752.41;5283188;28;20028;-74
2024/01/10 04:27:03;;;;;;;8.10;4.97;;;;;;;-7.57;79.92;102755.53;5281621;28;20422;-73
2024/01/10 04:29:35;;;;;;;8.77;4.97;;;;;;;-7.57;79.39;102759.72;5283110;28;20037;-73
2024/01/10 04:32:06;;;;;;;8.30;5.33;;;;;;;-7.62;79.49;102764.34;5282581;28;20028;-74
2024/01/10 04:34:38;;;;;;;8.60;4.67;;;;;;;-7.58;79.95;102766.44;5283096;28;20025;-73
2024/01/10 04:37:09;;;;;;;7.93;5.17;;;;;;;-7.72;79.31;102749.06;5281458;28;20112;-73
2024/01/10 04:39:42;;;;;;;7.57;5.03;;;;;;;-7.72;80.03;102760.06;5282786;28;20051;-74
2024/01/10 04:42:14;;;;;;;8.68;5.70;;;;;;;-7.70;80.37;102753.50;5282538;28;20048;-73
2024/01/10 04:44:45;;;;;;;8.73;4.97;;;;;;;-7.72;79.88;102759.19;5282372;28;20032;-73
2024/01/10 04:47:17;;;;;;;8.77;4.53;;;;;;;-7.72;81.26;102755.00;5283050;28;20032;-73
2024/01/10 04:49:48;;;;;;;8.47;5.07;;;;;;;-7.73;80.85;102748.19;5282661;28;20064;-74
2024/01/10 04:52:19;;;;;;;8.13;4.60;;;;;;;-7.71;81.12;102749.22;5283162;28;20079;-74
2024/01/10 04:54:51;;;;;;;6.90;4.47;;;;;;;-7.73;80.98;102758.31;5282220;28;20047;-73
2024/01/10 04:57:22;;;;;;;10.17;4.63;;;;;;;-7.75;81.36;102747.13;5282084;28;20040;-73
2024/01/10 04:59:53;;;;;;;8.27;4.87;;;;;;;-7.72;81.09;102744.88;5281096;28;20025;-73
2024/01/10 05:02:25;;;;;;;9.77;4.87;;;;;;;-7.77;81.15;102751.16;5282094;28;20141;-73
2024/01/10 05:04:58;;;;;;;9.00;5.40;;;;;;;-7.78;81.23;102744.31;5283012;28;20052;-74
2024/01/10 05:07:29;;;;;;;;;;;;;;;-7.80;81.23;102745.81;5284092;28;20116;-75
2024/01/10 05:10:00;;;;;;;12.35;5.50;;;;;;;-7.79;80.39;102740.03;5284679;28;19998;-75
2024/01/10 05:12:32;;;;;;;9.00;4.87;;;;;;;-7.77;81.16;102748.63;5286255;28;20032;-73
2024/01/10 05:15:04;;;;;;;7.10;4.23;;;;;;;-7.79;81.17;102746.69;5286254;28;20028;-73
2024/01/10 05:17:35;;;;;;;8.55;5.05;;;;;;;-7.78;81.34;102753.56;5286167;28;20502;-73
2024/01/10 05:20:07;;;;;;;8.20;4.97;;;;;;;-7.82;81.62;102742.25;5285020;28;20119;-73
2024/01/10 05:22:40;;;;;;;8.68;4.78;;;;;;;-7.81;81.63;102743.16;5286161;28;20052;-74
2024/01/10 05:25:12;;;;;;;9.18;5.25;;;;;;;-7.87;81.45;102743.47;5285645;28;20387;-73
2024/01/10 05:27:43;;;;;;;7.50;4.10;;;;;;;-7.87;82.62;102743.47;5286157;28;20059;-73
2024/01/10 05:30:15;;;;;;;10.13;5.10;;;;;;;-7.89;82.14;102747.47;5284573;28;20380;-74
2024/01/10 05:32:46;;;;;;;8.13;5.10;;;;;;;-7.84;82.57;102745.38;5285474;28;20036;-73
2024/01/10 05:35:18;;;;;;;9.80;5.03;;;;;;;-7.85;82.44;102746.16;5285903;28;20025;-74
2024/01/10 05:37:49;;;;;;;8.87;5.13;;;;;;;-7.88;82.13;102749.28;5286123;28;20055;-74
2024/01/10 05:40:21;;;;;;;9.13;5.82;;;;;;;-7.92;82.65;102753.16;5284430;28;20056;-74
2024/01/10 05:42:52;;;;;;;8.60;5.03;;;;;;;-7.88;83.16;102745.09;5285807;28;20114;-74
2024/01/10 05:45:24;;;;;;;11.43;5.93;;;;;;;-7.95;83.49;102746.91;5285970;28;20040;-74
2024/01/10 05:47:55;;;;;;;10.93;5.30;;;;;;;-7.98;83.52;102744.13;5285959;28;20105;-73
2024/01/10 05:50:27;;;;;;;11.67;4.93;;;;;;;-7.97;83.41;102756.91;5268171;28;20456;-73
2024/01/10 05:52:58;;;;;;;9.80;5.00;;;;;;;-7.95;83.22;102757.03;5289783;28;20454;-74
2024/01/10 05:55:29;;;;;;;9.40;5.00;;;;;;;-8.00;83.85;102754.09;5290072;28;20046;-73
2024/01/10 05:58:01;;;;;;;9.30;4.60;;;;;;;-8.00;83.70;102754.09;5288146;28;20024;-74
2024/01/10 06:00:32;;;;;;;10.53;5.30;;;;;;;-8.07;84.45;102757.66;5285931;28;20116;-74
2024/01/10 06:03:04;;;;;;;9.50;5.17;;;;;;;-8.04;84.41;102746.94;5285374;28;20097;-74
2024/01/10 06:05:36;;;;;;;8.63;5.28;;;;;;;-8.11;83.84;102744.59;5285092;28;20029;-74
2024/01/10 06:08:07;;;;;;;9.93;5.30;;;;;;;-8.17;84.14;102747.44;5285631;28;20486;-74
2024/01/10 06:10:38;;;;;;;10.03;5.43;;;;;;;-8.18;84.53;102744.75;5285300;28;20031;-75
2024/01/10 06:13:10;;;;;;;8.77;5.27;;;;;;;-8.19;85.00;102743.88;5267274;28;20040;-72
2024/01/10 06:15:41;;;;;;;10.63;4.97;;;;;;;-8.22;85.10;102740.16;5285385;28;20121;-73
2024/01/10 06:18:13;;;;;;;8.10;4.67;;;;;;;-8.25;85.33;102740.75;5285138;28;20031;-74
2024/01/10 06:20:44;;;;;;;11.43;5.70;;;;;;;-8.29;85.48;102737.06;5284982;28;20498;-74
2024/01/10 06:23:15;;;;;;;8.17;4.87;;;;;;;-8.33;85.55;102729.03;5285454;28;20048;-73
2024/01/10 06:25:47;;;;;;;9.47;4.50;;;;;;;-8.34;85.61;102737.34;5284658;28;20032;-73
2024/01/10 06:28:18;;;;;;;8.90;5.37;;;;;;;-8.32;86.52;102738.38;5283254;28;20028;-73
2024/01/10 06:30:49;;;;;;;8.93;5.63;;;;;;;-8.35;86.52;102739.00;5285300;28;20063;-74
2024/01/10 06:33:21;;;;;;;10.23;6.23;;;;;;;-8.32;86.49;102740.91;5284676;28;20032;-74
2024/01/10 06:35:53;;;;;;;9.30;5.70;;;;;;;-8.37;86.49;102742.13;5284712;28;20032;-74
2024/01/10 06:38:24;;;;;;;8.88;5.43;;;;;;;-8.37;86.50;102750.63;5285058;28;20044;-74
2024/01/10 06:40:56;;;;;;;9.40;5.77;;;;;;;-8.36;87.00;102752.38;5283173;28;20028;-73
2024/01/10 06:43:27;;;;;;;9.93;4.75;;;;;;;-8.38;86.59;102750.47;5283414;28;20024;-72
2024/01/10 06:45:59;;;;;;;8.90;5.50;;;;;;;-8.44;87.21;102746.63;5284468;28;20044;-73
2024/01/10 06:48:31;;;;;;;8.80;5.20;;;;;;;-8.46;87.37;102749.75;5282891;28;20100;-74
2024/01/10 06:51:02;;;;;;;;;;;;;;;-8.51;87.69;102744.25;5282893;28;20524;-74
2024/01/10 06:53:34;;;;;;;11.18;5.78;;;;;;;-8.47;87.77;102741.28;5284591;28;19960;-74
2024/01/10 06:56:07;;;;;;;8.33;5.50;;;;;;;-8.50;88.11;102742.63;5284694;28;20041;-73
2024/01/10 06:58:38;;;;;;;9.65;5.40;;;;;;;-8.52;88.09;102750.06;5282619;28;20127;-74
2024/01/10 07:01:13;;;;;;;12.63;5.22;;;;;;;-8.50;88.20;102746.06;5283945;28;20119;-74
2024/01/10 07:03:45;;;;;;;8.13;5.10;;;;;;;-8.51;88.42;102734.16;5284015;28;20128;-74
2024/01/10 07:06:16;;;;;;;11.77;6.20;;;;;;;-8.52;88.34;102747.53;5265657;28;20111;-73
2024/01/10 07:08:49;;;;;;;10.03;5.43;;;;;;;-8.54;88.36;102749.03;5284229;28;20036;-73
2024/01/10 07:11:21;;;;;;;8.18;4.68;;;;;;;-8.52;89.02;102754.22;5283840;28;20036;-74
2024/01/10 07:13:53;;;;;;;10.50;5.38;;;;;;;-8.51;88.40;102743.38;5283788;28;20040;-73
2024/01/10 07:16:25;;;;;;;11.10;6.17;;;;;;;-8.53;89.30;102757.50;5283848;28;20032;-75
2024/01/10 07:18:56;;;;;;;10.02;5.97;;;;;;;-8.55;88.92;102764.06;5284386;28;20032;-75
2024/01/10 07:21:28;;;;;;;10.03;4.97;;;;;;;-8.58;89.61;102748.59;5284195;28;20118;-75
2024/01/10 07:23:59;;;;;;;10.17;5.57;;;;;;;-8.60;89.09;102748.44;5283716;28;20452;-73
2024/01/10 07:26:30;;;;;;;11.17;5.97;;;;;;;-8.58;89.76;102741.00;5282527;28;20541;-74
2024/01/10 07:29:02;;;;;;;12.23;5.67;;;;;;;-8.58;89.86;102741.91;5284057;28;20051;-74
2024/01/10 07:31:35;;;;;;;12.30;6.50;;;;;;;-8.60;89.78;102735.78;5284937;28;20039;-75
2024/01/10 07:34:06;;;;;;;;;;;;;;;-8.62;89.92;102734.75;5285292;28;20070;-75
2024/01/10 07:36:43;;;;;;;10.48;5.82;;;;;;;-8.57;90.48;102738.63;5284151;28;19991;-75
2024/01/10 07:39:16;;;;;;;15.50;8.13;;;;;;;-8.54;90.52;102736.38;5283135;28;20475;-75
2024/01/10 07:41:49;;;;;;;10.38;5.63;;;;;;;-8.56;91.12;102739.50;5283382;28;20052;-75
2024/01/10 07:44:21;;;;;;;9.82;5.68;;;;;;;-8.54;91.10;102738.91;5282164;28;20021;-74
2024/01/10 07:46:54;;;;;;;9.95;6.32;;;;;;;-8.56;90.73;102732.81;5283341;28;20028;-76
2024/01/10 07:49:26;;;;;;;11.20;5.93;;;;;;;-8.54;91.10;102731.31;5283216;28;20038;-74
2024/01/10 07:51:57;;;;;;;14.77;6.57;;;;;;;-8.52;91.20;102734.00;5282028;28;20056;-74
2024/01/10 07:54:29;;;;;;;10.40;6.60;;;;;;;-8.49;90.67;102725.06;5282544;28;20048;-73
2024/01/10 07:57:00;;;;;;;11.00;6.33;;;;;;;-8.45;90.60;102736.38;5282745;28;20484;-74
2024/01/10 07:59:31;;;;;;;12.97;6.23;;;;;;;-8.45;90.50;102734.75;5282842;28;20035;-73
2024/01/10 08:02:03;;;;;;;17.17;8.00;;;;;;;-8.41;90.58;102738.41;5282678;28;20032;-74
2024/01/10 08:04:34;;;;;;;11.33;6.17;;;;;;;-8.37;90.50;102745.56;5282854;28;20032;-73
2024/01/10 08:07:06;;;;;;;16.07;6.80;;;;;;;-8.32;90.71;102749.41;5282592;28;20043;-74
2024/01/10 08:09:37;;;;;;;10.63;6.60;;;;;;;-8.32;90.25;102741.81;5282316;28;20090;-75
2024/01/10 08:12:08;;;;;;;13.90;7.03;;;;;;;-8.32;90.45;102751.03;5282443;28;20390;-74
2024/01/10 08:14:40;;;;;;;13.70;7.33;;;;;;;-8.31;89.61;102751.19;5282533;28;20401;-72
2024/01/10 08:17:11;;;;;;;12.47;6.37;;;;;;;-8.25;90.19;102755.94;5282769;28;20112;-75
2024/01/10 08:19:43;;;;;;;11.93;6.30;;;;;;;-8.20;90.21;102748.78;5282553;28;20091;-76
2024/01/10 08:22:14;;;;;;;10.73;6.07;;;;;;;-8.14;90.18;102759.50;5264552;28;20750;-75
2024/01/10 08:24:46;;;;;;;13.02;6.90;;;;;;;-8.03;90.86;102757.94;5282529;28;20097;-75
2024/01/10 08:27:18;;;;;;;13.00;7.07;;;;;;;-7.98;90.13;102762.72;5283117;28;20028;-75
2024/01/10 08:29:49;;;;;;;10.87;6.47;;;;;;;-7.90;89.01;102759.25;5282834;28;20028;-76
2024/01/10 08:32:21;;;;;;;11.17;6.73;;;;;;;-7.81;88.95;102771.00;5281286;28;20032;-76
2024/01/10 08:34:53;;;;;;;15.35;7.18;;;;;;;-7.75;88.31;102757.25;5283023;28;20028;-77
2024/01/10 08:37:24;;;;;;;15.13;5.83;;;;;;;-7.70;87.51;102760.22;5282658;28;20082;-75
2024/01/10 08:39:56;;;;;;;11.77;7.13;;;;;;;-7.62;86.83;102764.34;5264757;28;20032;-75
2024/01/10 08:42:27;;;;;;;10.10;6.13;;;;;;;-7.59;86.33;102756.16;5282156;28;20033;-75
2024/01/10 08:44:58;;;;;;;11.37;6.93;;;;;;;-7.54;85.69;102754.94;5286283;28;20047;-76
2024/01/10 08:47:34;;;;;;;11.20;6.47;;;;;;;-7.42;86.11;102755.16;5286741;28;20138;-75
2024/01/10 08:50:08;;;;;;;10.48;6.45;;;;;;;-7.28;85.12;102753.91;5286850;28;20044;-75
2024/01/10 08:52:39;;;;;;;10.57;6.55;;;;;;;-7.13;85.21;102757.84;5287181;28;20055;-76
2024/01/10 08:55:11;;;;;;;11.70;6.83;;;;;;;-6.93;84.23;102763.81;5286205;28;20103;-75
2024/01/10 08:57:42;;;;;;;13.00;6.87;;;;;;;-6.74;82.99;102756.22;5286837;28;20089;-75
2024/01/10 09:00:17;;;;;;;11.63;6.67;;;;;;;-6.53;81.26;102758.09;5285631;28;20086;-75
2024/01/10 09:02:48;;;;;;;13.10;6.63;;;;;;;-6.35;81.11;102758.81;5287089;28;20086;-75
2024/01/10 09:05:21;;;;;;;11.53;6.73;;;;;;;-6.10;80.55;102761.84;5287885;28;20037;-75
2024/01/10 09:07:55;;;;;;;;;;;;;;;-5.78;81.79;102762.78;5289533;28;20404;-75
2024/01/10 09:10:29;;;;;;;10.00;5.97;;;;;;;-5.67;77.03;102764.59;5287816;28;20005;-75
2024/01/10 09:13:00;;;;;;;12.73;7.28;;;;;;;-5.48;74.92;102751.78;5285414;28;20024;-74
2024/01/10 09:15:32;;;;;;;11.50;7.40;;;;;;;-5.25;73.84;102765.53;5286375;28;20040;-74
2024/01/10 09:18:03;;;;;;;12.60;8.50;;;;;;;-5.14;73.39;102760.56;5285085;28;20051;-74
2024/01/10 09:20:35;;;;;;;11.07;7.37;;;;;;;-4.94;73.18;102768.97;5286320;28;20071;-74
2024/01/10 09:23:07;;;;;;;13.02;7.07;;;;;;;-4.66;72.75;102766.13;5284636;28;20078;-74
2024/01/10 09:25:38;;;;;;;11.60;6.60;;;;;;;-4.51;70.98;102764.81;5286180;28;20028;-74
2024/01/10 09:28:10;;;;;;;10.97;7.00;;;;;;;-4.36;68.14;102770.25;5284851;28;20052;-74
2024/01/10 09:30:41;;;;;;;12.90;7.60;;;;;;;-4.06;68.79;102768.34;5286034;28;20040;-73
2024/01/10 09:33:12;;;;;;;10.37;6.97;;;;;;;-3.89;67.94;102772.22;5285706;28;20035;-73
2024/01/10 09:35:44;;;;;;;13.27;7.17;;;;;;;-3.76;66.59;102777.50;5285628;28;20083;-73
2024/01/10 09:38:16;;;;;;;12.57;7.27;;;;;;;-3.52;65.81;102768.28;5285725;28;20383;-73
2024/01/10 09:40:48;;;;;;;12.30;7.80;;;;;;;-3.36;66.18;102772.91;5285466;28;20067;-73
2024/01/10 09:43:21;;;;;;;15.37;8.20;;;;;;;-3.40;64.38;102777.66;5285586;28;20125;-73
2024/01/10 09:45:54;;;;;;;11.45;7.03;;;;;;;-3.09;64.43;102773.22;5284357;28;20024;-72
2024/01/10 09:48:26;;;;;;;15.20;9.20;;;;;;;-2.88;63.13;102778.13;5285182;28;20526;-72
2024/01/10 09:50:58;;;;;;;11.73;7.43;;;;;;;-2.57;62.10;102782.16;5285315;28;20036;-74
2024/01/10 09:53:33;;;;;;;13.02;7.32;;;;;;;-2.55;59.61;102778.84;5283992;28;20041;-72
2024/01/10 09:56:05;;;;;;;14.48;7.43;;;;;;;-2.40;58.36;102785.03;5285346;28;20033;-72
2024/01/10 09:58:39;;;;;;;15.30;8.23;;;;;;;-2.30;58.45;102789.13;5285160;28;20162;-72
2024/01/10 10:01:11;;;;;;;17.60;9.30;;;;;;;-1.81;58.21;102782.41;5285179;28;20486;-72
2024/01/10 10:03:45;;;;;;;12.50;8.10;;;;;;;-1.50;58.68;102785.44;5285250;28;20035;-72
2024/01/10 10:06:17;;;;;;;14.48;8.27;;;;;;;-1.36;56.41;102785.47;5283886;28;20209;-72
2024/01/10 10:08:49;;;;;;;12.87;7.73;;;;;;;-1.42;55.17;102783.38;5284617;28;20189;-72
2024/01/10 10:11:20;;;;;;;13.97;7.80;;;;;;;-1.12;55.53;102782.00;5285421;28;20487;-72
2024/01/10 10:13:51;;;;;;;12.67;8.07;;;;;;;-1.03;54.32;102780.84;5284592;28;20081;-72
2024/01/10 10:16:25;;;;;;;14.60;9.10;;;;;;;-0.90;54.54;102782.53;5283872;28;20044;-72
2024/01/10 10:18:58;;;;;;;12.10;7.70;;;;;;;-0.61;54.07;102775.13;5284831;28;20391;-72
2024/01/10 10:21:30;;;;;;;;;;;;;;;-0.04;57.79;102783.84;5285237;28;20066;-72
2024/01/10 10:24:03;;;;;;;12.88;8.13;;;;;;;-0.20;51.32;102783.69;5284642;28;20018;-72
2024/01/10 10:26:35;;;;;;;15.23;8.98;;;;;;;-0.41;51.03;102781.50;5285124;28;20033;-72
2024/01/10 10:29:06;;;;;;;12.17;7.43;;;;;;;0.04;51.52;102775.75;5284557;28;20051;-72
2024/01/10 10:31:38;;;;;;;12.77;8.53;;;;;;;0.09;50.34;102766.66;5284584;28;20040;-73
2024/01/10 10:34:10;;;;;;;14.47;8.43;;;;;;;0.13;49.86;102772.09;5284828;28;20456;-73
2024/01/10 10:36:42;;;;;;;12.23;8.43;;;;;;;0.54;50.09;102767.69;5285106;28;20483;-73
2024/01/10 10:39:17;;;;;;;12.10;8.63;;;;;;;0.97;48.97;102767.69;5284068;28;20037;-73
2024/01/10 10:41:52;;;;;;;15.55;8.57;;;;;;;0.81;47.71;102758.19;5282783;28;20036;-73
2024/01/10 10:44:24;;;;;;;12.80;8.43;;;;;;;0.93;47.47;102757.13;5284321;28;20383;-73
2024/01/10 10:47:04;;;;;;;13.20;8.95;;;;;;;1.03;46.94;102750.06;5284425;28;20028;-71
2024/01/10 10:49:38;;;;;;;12.90;8.43;;;;;;;1.45;47.20;102763.59;5283808;28;20033;-73
2024/01/10 10:52:09;;;;;;;11.85;8.45;;;;;;;2.05;45.07;102749.69;5283562;28;20136;-72
2024/01/10 10:54:41;;;;;;;17.20;9.10;;;;;;;1.95;45.40;102749.19;5283806;28;20111;-72
2024/01/10 10:57:14;;;;;;;14.07;9.90;;;;;;;2.28;44.25;102762.06;5284087;28;20321;-72
2024/01/10 10:59:46;;;;;;;14.45;9.10;;;;;;;2.26;45.09;102755.09;5282541;28;20420;-72
2024/01/10 11:02:26;;;;;;;18.42;9.57;;;;;;;2.63;44.34;102755.31;5283766;28;20043;-73
2024/01/10 11:04:59;;;;;;;14.18;8.82;;;;;;;2.68;43.06;102758.13;5283093;28;20029;-73
2024/01/10 11:07:31;;;;;;;13.93;8.52;;;;;;;3.16;42.90;102758.84;5284223;28;20112;-72
2024/01/10 11:10:06;;;;;;;17.43;8.70;;;;;;;3.04;42.26;102758.22;5283987;28;20112;-73
2024/01/10 11:13:25;;;;;;;12.38;8.48;;;;;;;3.23;42.72;102760.91;5283844;28;20017;-73
2024/01/10 11:16:15;;;;;;;15.10;9.55;;;;;;;3.35;40.62;102750.31;5273242;28;20041;-73
2024/01/10 11:19:13;;;;;;;16.15;9.65;;;;;;;3.79;42.12;102750.66;5282728;28;20024;-73
2024/01/10 11:22:09;;;;;;;13.85;9.43;;;;;;;4.11;42.24;102749.56;5283568;28;20036;-73
2024/01/10 11:24:41;;;;;;;14.27;8.88;;;;;;;4.42;39.84;102745.75;5283392;28;20055;-74
2024/01/10 11:27:14;;;;;;;13.63;9.18;;;;;;;4.61;39.43;102744.88;5283437;28;20115;-73
2024/01/10 11:29:47;;;;;;;15.18;8.77;;;;;;;4.36;37.84;102736.06;5283602;28;20041;-73
2024/01/10 11:32:23;;;;;;;14.98;9.10;;;;;;;4.29;38.23;102740.88;5282948;28;20074;-74
2024/01/10 11:34:58;;;;;;;12.55;8.95;;;;;;;4.63;36.70;102729.44;5283529;28;20064;-73
2024/01/10 11:37:46;;;;;;;14.30;9.48;;;;;;;4.96;38.65;102734.25;5283191;28;20035;-73
2024/01/10 11:40:48;;;;;;;14.15;9.68;;;;;;;5.66;38.09;102723.28;5283079;28;20123;-73
2024/01/10 11:43:19;;;;;;;15.43;9.90;;;;;;;6.58;35.90;102728.41;5283002;28;20036;-73
2024/01/10 11:45:55;;;;;;;15.73;9.85;;;;;;;6.31;35.23;102729.19;5283260;28;20341;-73
2024/01/10 11:48:31;;;;;;;13.98;9.43;;;;;;;6.25;35.70;102721.22;5282637;28;20039;-73